Time;durP1;ratioP1;P1;durP2;ratioP2;P2;SDS_P1;SDS_P2;PMS_P1;PMS_P2;Temp;Humidity;BMP_temperature;BMP_pressure;BME280_temperature;BME280_humidity;BME280_pressure;Samples;Min_cycle;Max_cycle;Signal;HPM_P1;HPM_P2
2023/04/10 00:02:20;;;;;;;21.20;13.80;;;;;;;8.23;74.16;100974.27;131417;1253;107544;-75
2023/04/10 00:05:26;;;;;;;22.90;14.30;;;;;;;8.22;74.09;100971.66;131322;1251;107514;-75
2023/04/10 00:08:31;;;;;;;21.80;13.80;;;;;;;8.22;74.13;100968.69;131285;1251;107140;-75
2023/04/10 00:11:36;;;;;;;20.70;14.30;;;;;;;8.16;73.61;100964.55;131202;1253;106093;-75
2023/04/10 00:14:42;;;;;;;20.40;13.60;;;;;;;8.11;73.73;100969.40;131167;1253;107570;-75
2023/04/10 00:17:49;;;;;;;21.90;14.20;;;;;;;8.05;73.54;100971.79;131231;1253;107473;-76
2023/04/10 00:20:55;;;;;;;20.50;13.30;;;;;;;7.99;73.48;100968.91;131503;1251;108124;-75
2023/04/10 00:24:00;;;;;;;18.20;12.50;;;;;;;7.91;73.25;100972.52;131429;1251;107219;-75
2023/04/10 00:27:06;;;;;;;19.00;12.30;;;;;;;7.82;73.72;100975.82;131352;1250;107234;-75
2023/04/10 00:30:12;;;;;;;17.00;11.40;;;;;;;7.76;73.62;100974.17;131215;1251;107487;-75
2023/04/10 00:33:17;;;;;;;18.90;12.50;;;;;;;7.73;73.72;100969.48;131176;1251;155903;-76
2023/04/10 00:36:23;;;;;;;17.60;12.50;;;;;;;7.69;73.56;100972.05;131392;1250;107449;-76
2023/04/10 00:39:28;;;;;;;21.10;15.40;;;;;;;7.68;73.62;100968.95;131363;1253;107485;-76
2023/04/10 00:42:34;;;;;;;19.70;13.70;;;;;;;7.67;73.75;100969.75;131317;1254;107536;-76
2023/04/10 00:45:40;;;;;;;17.40;12.60;;;;;;;7.63;73.57;100968.59;131398;1253;107557;-75
2023/04/10 00:48:46;;;;;;;19.70;14.00;;;;;;;7.62;73.47;100974.34;131316;1253;107620;-76
2023/04/10 00:51:51;;;;;;;18.30;13.10;;;;;;;7.57;73.49;100965.92;131233;1257;107518;-76
2023/04/10 00:54:57;;;;;;;18.90;13.40;;;;;;;7.51;73.78;100965.81;131151;1250;107649;-76
2023/04/10 00:58:03;;;;;;;20.80;13.40;;;;;;;7.44;73.49;100972.34;131278;1250;107798;-75
2023/04/10 01:01:10;;;;;;;19.10;13.10;;;;;;;7.38;73.39;100973.15;131511;1248;107338;-74
2023/04/10 01:04:17;;;;;;;21.70;13.20;;;;;;;7.33;73.30;100973.36;131205;1253;107379;-74
2023/04/10 01:07:35;;;;;;;18.90;12.90;;;;;;;7.27;73.12;100979.23;131505;1253;106672;-77
2023/04/10 01:10:51;;;;;;;19.70;12.80;;;;;;;7.22;73.19;100977.02;131367;1251;107356;-73
2023/04/10 01:14:05;;;;;;;17.60;11.30;;;;;;;7.14;73.13;100980.08;131301;1253;107521;-75
2023/04/10 01:17:17;;;;;;;17.30;10.80;;;;;;;7.06;73.14;100975.15;131280;1253;107580;-76
2023/04/10 01:20:22;;;;;;;;;;;;;;;7.03;73.22;100969.54;131410;1253;107518;-76
2023/04/10 01:23:46;;;;;;;20.80;13.80;;;;;;;7.02;73.36;100973.12;131446;1251;107398;-75
2023/04/10 01:27:13;;;;;;;25.60;16.00;;;;;;;7.03;73.48;100974.98;131403;1251;107273;-76
2023/04/10 01:30:21;;;;;;;23.70;14.90;;;;;;;7.03;72.71;100976.63;131392;1250;107535;-76
2023/04/10 01:33:32;;;;;;;24.20;15.10;;;;;;;7.01;72.87;100978.30;131169;1253;107466;-76
2023/04/10 01:36:46;;;;;;;40.70;26.00;;;;;;;6.96;72.83;100980.98;131301;1253;107264;-76
2023/04/10 01:39:58;;;;;;;32.40;21.10;;;;;;;6.90;72.78;100978.08;131378;1253;107534;-77
2023/04/10 01:43:10;;;;;;;28.50;17.80;;;;;;;6.85;73.19;100976.98;131106;1253;107693;-77
2023/04/10 01:46:23;;;;;;;26.50;16.40;;;;;;;6.80;73.20;100979.13;131183;1253;107429;-76
2023/04/10 01:49:31;;;;;;;28.70;17.20;;;;;;;6.74;72.95;100981.23;131321;1250;107358;-75
2023/04/10 01:52:43;;;;;;;27.50;16.60;;;;;;;6.68;73.20;100985.48;131261;1251;107456;-76
2023/04/10 01:55:56;;;;;;;25.30;16.30;;;;;;;6.62;73.16;100986.60;131131;1253;107432;-76
2023/04/10 01:59:04;;;;;;;25.50;13.60;;;;;;;6.58;73.16;100991.17;131129;1253;107693;-76
2023/04/10 02:02:11;;;;;;;20.50;12.80;;;;;;;6.56;73.46;100994.11;131061;1256;107450;-74
2023/04/10 02:05:17;;;;;;;19.70;12.90;;;;;;;6.59;73.35;100990.73;131312;1254;107848;-75
2023/04/10 02:08:30;;;;;;;20.40;13.20;;;;;;;6.63;73.31;100987.77;131192;1251;106253;-76
2023/04/10 02:11:44;;;;;;;22.60;14.60;;;;;;;6.72;73.19;100994.04;131232;1248;107315;-76
2023/04/10 02:14:54;;;;;;;22.10;14.60;;;;;;;6.79;73.24;100988.80;131133;1253;107543;-76
2023/04/10 02:18:03;;;;;;;19.80;13.20;;;;;;;6.81;73.02;100988.27;131176;1253;107445;-75
2023/04/10 02:21:10;;;;;;;21.20;13.60;;;;;;;6.82;72.98;100990.48;131221;1248;107359;-76
2023/04/10 02:24:15;;;;;;;19.70;13.70;;;;;;;6.85;73.27;100991.73;131155;1253;107451;-76
2023/04/10 02:27:30;;;;;;;22.60;14.80;;;;;;;6.85;73.37;100994.85;131147;1254;107200;-76
2023/04/10 02:30:38;;;;;;;30.60;17.00;;;;;;;6.89;73.61;100996.00;131142;1253;107491;-75
2023/04/10 02:33:43;;;;;;;29.10;16.00;;;;;;;6.91;73.64;100989.00;131140;1253;108488;-76
2023/04/10 02:36:50;;;;;;;28.70;17.00;;;;;;;6.91;73.90;100986.83;131259;1253;106509;-76
2023/04/10 02:39:57;;;;;;;30.30;15.80;;;;;;;6.94;74.15;100986.44;131100;1253;107367;-76
2023/04/10 02:43:04;;;;;;;33.00;17.60;;;;;;;7.01;74.37;100990.39;131184;1253;107535;-77
2023/04/10 02:46:09;;;;;;;46.30;19.60;;;;;;;7.12;74.41;100990.28;131164;1256;107524;-76
2023/04/10 02:49:17;;;;;;;37.80;18.90;;;;;;;7.23;74.37;100991.78;131163;1253;107431;-76
2023/04/10 02:52:23;;;;;;;36.20;17.80;;;;;;;7.32;74.53;100993.80;131231;1252;107525;-76
2023/04/10 02:55:28;;;;;;;45.00;19.20;;;;;;;7.40;74.59;100994.03;131038;1248;106246;-76
2023/04/10 02:58:34;;;;;;;47.60;20.70;;;;;;;7.46;74.59;100989.86;131364;1248;108226;-76
2023/04/10 03:01:40;;;;;;;45.10;21.30;;;;;;;7.49;74.90;100987.73;131024;1256;107351;-76
2023/04/10 03:04:46;;;;;;;49.20;22.40;;;;;;;7.49;74.97;100986.66;131201;1253;107452;-75
2023/04/10 03:07:53;;;;;;;44.20;22.00;;;;;;;7.51;75.40;100987.27;131357;1250;107546;-75
2023/04/10 03:10:58;;;;;;;48.00;20.40;;;;;;;7.52;75.48;100988.02;131161;1253;107598;-76
2023/04/10 03:14:04;;;;;;;41.50;20.00;;;;;;;7.55;75.43;100987.13;131067;1257;107609;-76
2023/04/10 03:17:11;;;;;;;48.60;22.00;;;;;;;7.59;75.69;100990.34;131082;1250;107244;-77
2023/04/10 03:20:17;;;;;;;51.80;22.80;;;;;;;7.63;75.67;100993.38;131226;1253;107446;-76
2023/04/10 03:23:22;;;;;;;44.60;22.70;;;;;;;7.68;75.84;100992.10;131090;1253;107414;-76
2023/04/10 03:26:28;;;;;;;44.10;22.20;;;;;;;7.71;75.82;100991.17;131172;1249;107541;-74
2023/04/10 03:29:33;;;;;;;44.10;22.00;;;;;;;7.72;76.00;100986.54;131136;1254;107502;-75
2023/04/10 03:32:41;;;;;;;39.80;21.50;;;;;;;7.73;76.20;100990.55;131129;1253;107402;-77
2023/04/10 03:35:47;;;;;;;38.30;20.30;;;;;;;7.70;76.21;100993.79;131261;1253;107253;-73
2023/04/10 03:38:53;;;;;;;33.30;18.80;;;;;;;7.66;76.30;100993.30;131121;1251;107461;-76
2023/04/10 03:41:58;;;;;;;31.70;17.70;;;;;;;7.63;76.57;100993.37;131070;1248;107537;-76
2023/04/10 03:45:05;;;;;;;26.50;16.80;;;;;;;7.65;76.68;100990.79;131151;1253;107377;-76
2023/04/10 03:48:11;;;;;;;31.10;19.00;;;;;;;7.57;76.89;100989.95;131239;1253;108629;-76
2023/04/10 03:51:22;;;;;;;29.50;18.40;;;;;;;7.53;77.07;100989.55;131141;1253;107436;-76
2023/04/10 03:54:29;;;;;;;28.40;18.30;;;;;;;7.55;77.13;100992.75;131263;1253;107463;-75
2023/04/10 03:57:35;;;;;;;30.30;19.00;;;;;;;7.56;77.04;100998.36;131386;1253;107468;-76
2023/04/10 04:00:42;;;;;;;31.80;19.50;;;;;;;7.56;76.92;101004.20;131405;1254;107424;-75
2023/04/10 04:04:07;;;;;;;30.50;19.40;;;;;;;7.58;77.29;101012.20;131100;1256;107401;-75
2023/04/10 04:07:33;;;;;;;28.40;16.90;;;;;;;7.61;77.32;101014.78;131260;1251;107946;-75
2023/04/10 04:10:53;;;;;;;23.30;15.30;;;;;;;7.62;77.02;101015.81;131138;1253;107426;-75
2023/04/10 04:14:12;;;;;;;26.30;17.30;;;;;;;7.65;77.17;101015.18;131121;1253;108445;-74
2023/04/10 04:17:20;;;;;;;25.50;16.90;;;;;;;7.71;76.93;101016.89;131180;1253;107467;-74
2023/04/10 04:20:44;;;;;;;27.30;17.70;;;;;;;7.74;76.91;101018.77;131213;1253;107469;-75
2023/04/10 04:24:10;;;;;;;24.40;16.10;;;;;;;7.63;77.27;101014.33;131429;1251;105886;-74
2023/04/10 04:27:54;;;;;;;55.00;45.60;;;;;;;7.59;77.36;101019.55;130531;1256;107695;-75
2023/04/10 04:31:20;;;;;;;31.20;25.00;;;;;;;7.55;77.43;101025.55;130623;1262;107571;-75
2023/04/10 04:34:28;;;;;;;33.10;25.80;;;;;;;7.57;77.64;101029.23;131189;1253;107483;-73
2023/04/10 04:37:50;;;;;;;36.50;28.20;;;;;;;7.65;77.60;101027.08;131392;1253;107496;-75
2023/04/10 04:41:21;;;;;;;30.40;24.80;;;;;;;7.73;77.63;101033.54;131412;1254;105674;-75
2023/04/10 04:44:44;;;;;;;39.80;30.80;;;;;;;7.82;77.96;101034.64;131135;1253;107528;-75
2023/04/10 04:48:15;;;;;;;25.40;18.60;;;;;;;8.02;78.03;101038.11;131085;1257;107507;-76
2023/04/10 04:51:41;;;;;;;22.60;15.80;;;;;;;8.20;77.88;101039.37;131611;1253;108055;-74
2023/04/10 04:54:52;;;;;;;19.00;14.60;;;;;;;8.32;77.72;101038.63;131446;1253;107382;-74
2023/04/10 04:58:22;;;;;;;19.10;15.10;;;;;;;8.41;77.87;101040.09;131377;1250;106760;-75
2023/04/10 05:01:42;;;;;;;21.30;16.30;;;;;;;8.49;78.24;101039.48;131596;1251;107439;-75
2023/04/10 05:04:56;;;;;;;18.60;14.40;;;;;;;8.60;78.35;101041.21;131405;1253;108391;-74
2023/04/10 05:08:09;;;;;;;18.30;12.70;;;;;;;8.65;78.64;101050.11;131504;1251;107440;-75
2023/04/10 05:11:35;;;;;;;23.40;16.40;;;;;;;8.66;78.99;101055.48;130959;1254;107343;-75
2023/04/10 05:14:55;;;;;;;19.50;14.30;;;;;;;8.71;79.95;101052.84;131308;1253;107380;-75
2023/04/10 05:18:22;;;;;;;21.80;15.60;;;;;;;8.64;80.54;101054.11;131323;1252;108755;-75
2023/04/10 05:21:38;;;;;;;28.70;16.70;;;;;;;8.60;80.57;101056.70;131238;1253;107427;-75
2023/04/10 05:25:00;;;;;;;36.80;27.80;;;;;;;8.59;81.35;101053.94;131259;1251;107475;-75
2023/04/10 05:28:18;;;;;;;22.80;16.30;;;;;;;8.63;80.57;101062.27;131084;1257;107460;-75
2023/04/10 05:31:56;;;;;;;23.70;16.00;;;;;;;8.78;81.29;101063.13;130975;1260;107595;-75
2023/04/10 05:35:29;;;;;;;39.20;25.00;;;;;;;8.92;80.99;101060.02;131095;1253;107499;-75
2023/04/10 05:38:53;;;;;;;22.10;16.40;;;;;;;9.17;80.95;101059.79;131191;1251;107933;-75
2023/04/10 05:42:31;;;;;;;27.90;21.80;;;;;;;9.21;81.27;101063.02;131156;1253;107374;-75
2023/04/10 05:46:03;;;;;;;26.40;20.20;;;;;;;9.10;81.43;101064.65;131001;1253;107563;-77
2023/04/10 05:49:18;;;;;;;24.90;16.80;;;;;;;8.94;81.57;101064.86;131382;1253;108277;-76
2023/04/10 05:52:45;;;;;;;22.80;15.90;;;;;;;8.79;82.05;101066.02;130994;1251;107566;-74
2023/04/10 05:56:11;;;;;;;26.00;20.60;;;;;;;8.75;82.70;101063.71;131046;1250;106230;-74
2023/04/10 05:59:42;;;;;;;123.20;86.10;;;;;;;8.69;83.60;101062.05;131166;1251;107479;-74
2023/04/10 06:03:19;;;;;;;29.20;21.00;;;;;;;8.64;83.51;101066.27;131167;1253;107414;-73
2023/04/10 06:06:29;;;;;;;58.30;45.60;;;;;;;8.63;83.90;101068.66;131466;1253;107361;-74
2023/04/10 06:09:35;;;;;;;52.40;38.50;;;;;;;8.58;84.85;101064.67;131241;1253;107467;-72
2023/04/10 06:12:44;;;;;;;30.50;24.50;;;;;;;8.50;85.99;101064.57;131302;1254;107481;-73
2023/04/10 06:15:49;;;;;;;23.60;17.50;;;;;;;8.53;85.99;101065.56;131192;1251;107449;-73
2023/04/10 06:18:55;;;;;;;55.70;42.50;;;;;;;8.68;85.81;101061.04;131142;1253;107443;-73
2023/04/10 06:22:01;;;;;;;38.90;28.90;;;;;;;8.97;85.33;101056.63;131321;1252;107624;-72
2023/04/10 06:25:08;;;;;;;28.90;21.70;;;;;;;9.32;84.62;101052.34;131364;1249;107385;-73
2023/04/10 06:28:14;;;;;;;22.60;17.10;;;;;;;9.69;83.74;101055.71;131028;1250;107507;-73
2023/04/10 06:31:22;;;;;;;20.70;16.00;;;;;;;10.02;83.19;101059.03;131124;1253;107572;-72
2023/04/10 06:34:27;;;;;;;21.50;16.50;;;;;;;10.16;82.54;101060.67;131168;1253;107533;-72
2023/04/10 06:37:37;;;;;;;24.30;18.70;;;;;;;10.26;82.62;101061.96;131268;1253;107517;-72
2023/04/10 06:40:43;;;;;;;30.30;24.30;;;;;;;10.26;82.75;101064.27;131236;1253;107826;-72
2023/04/10 06:43:49;;;;;;;30.30;23.90;;;;;;;10.23;83.05;101063.57;131488;1252;107510;-72
2023/04/10 06:46:54;;;;;;;25.70;19.30;;;;;;;10.17;83.66;101069.09;131483;1248;107216;-72
2023/04/10 06:50:00;;;;;;;33.50;26.00;;;;;;;10.05;83.57;101075.10;131279;1259;106655;-72
2023/04/10 06:53:05;;;;;;;23.40;17.00;;;;;;;9.99;83.72;101073.98;131255;1254;107551;-72
2023/04/10 06:56:11;;;;;;;22.00;17.30;;;;;;;10.10;83.58;101072.05;131258;1253;105900;-72
2023/04/10 06:59:16;;;;;;;23.10;17.40;;;;;;;10.26;83.66;101067.66;131280;1261;107360;-72
2023/04/10 07:02:22;;;;;;;33.80;28.30;;;;;;;10.33;84.05;101068.33;131454;1253;107360;-73
2023/04/10 07:05:27;;;;;;;25.10;20.40;;;;;;;10.33;84.13;101073.68;131257;1253;108598;-72
2023/04/10 07:08:33;;;;;;;21.50;15.90;;;;;;;10.35;83.97;101073.84;131452;1254;107486;-71
2023/04/10 07:11:38;;;;;;;18.60;14.60;;;;;;;10.52;83.45;101079.64;131332;1251;107947;-71
2023/04/10 07:14:44;;;;;;;20.00;15.30;;;;;;;10.79;83.11;101080.38;131383;1251;107504;-71
2023/04/10 07:17:50;;;;;;;19.80;15.70;;;;;;;11.01;82.71;101085.35;131313;1249;106044;-71
2023/04/10 07:20:55;;;;;;;21.10;15.70;;;;;;;11.21;82.47;101092.52;131320;1252;107625;-71
2023/04/10 07:24:01;;;;;;;20.70;15.90;;;;;;;11.40;82.14;101087.79;131389;1248;107470;-72
2023/04/10 07:27:06;;;;;;;19.90;15.70;;;;;;;11.54;81.84;101087.08;131251;1253;106639;-72
2023/04/10 07:30:12;;;;;;;20.60;16.50;;;;;;;11.72;81.60;101089.84;131273;1254;107255;-72
2023/04/10 07:33:18;;;;;;;21.20;16.50;;;;;;;11.79;81.53;101085.32;131268;1257;109235;-71
2023/04/10 07:36:23;;;;;;;20.20;15.80;;;;;;;11.89;81.55;101086.58;131233;1253;106898;-72
2023/04/10 07:39:29;;;;;;;20.80;15.90;;;;;;;11.92;81.23;101084.70;131195;1253;107310;-71
2023/04/10 07:42:34;;;;;;;18.40;15.60;;;;;;;11.88;81.45;101087.34;131336;1253;107523;-71
2023/04/10 07:45:40;;;;;;;19.50;16.20;;;;;;;11.96;81.22;101088.55;131207;1253;107402;-71
2023/04/10 07:48:47;;;;;;;19.50;15.50;;;;;;;11.98;80.66;101084.31;131345;1253;107319;-72
2023/04/10 07:51:52;;;;;;;21.60;17.00;;;;;;;12.07;81.04;101082.77;131495;1253;108609;-73
2023/04/10 07:54:57;;;;;;;21.30;17.90;;;;;;;12.15;80.75;101078.98;132818;1248;107333;-72
2023/04/10 07:58:03;;;;;;;20.60;17.10;;;;;;;12.07;80.26;101078.29;131613;1254;107217;-73
2023/04/10 08:01:08;;;;;;;21.20;17.50;;;;;;;11.99;80.75;101079.23;131687;1253;107523;-72
2023/04/10 08:04:14;;;;;;;21.00;17.20;;;;;;;11.79;80.36;101071.92;131454;1253;107354;-74
2023/04/10 08:07:21;;;;;;;21.40;16.60;;;;;;;11.70;81.18;101069.33;131428;1253;107300;-72
2023/04/10 08:10:26;;;;;;;20.30;15.90;;;;;;;11.67;81.06;101071.97;131279;1253;107358;-72
2023/04/10 08:13:32;;;;;;;20.20;16.40;;;;;;;11.70;81.85;101071.90;131239;1261;107520;-72
2023/04/10 08:16:38;;;;;;;24.90;18.40;;;;;;;11.70;81.37;101071.73;131264;1253;107526;-72
2023/04/10 08:19:44;;;;;;;22.00;16.50;;;;;;;11.61;81.39;101067.91;131364;1253;107552;-71
2023/04/10 08:22:49;;;;;;;23.40;17.60;;;;;;;11.65;81.81;101063.64;131430;1253;107714;-71
2023/04/10 08:25:55;;;;;;;24.00;17.80;;;;;;;11.70;81.59;101065.11;131256;1253;107566;-71
2023/04/10 08:29:01;;;;;;;24.30;19.10;;;;;;;11.70;81.83;101063.86;131360;1253;107403;-72
2023/04/10 08:32:07;;;;;;;21.90;17.20;;;;;;;11.76;81.53;101063.64;131472;1264;108091;-72
2023/04/10 08:35:12;;;;;;;23.10;17.60;;;;;;;11.83;81.75;101060.77;131141;1253;107535;-72
2023/04/10 08:38:20;;;;;;;22.50;17.40;;;;;;;11.86;81.52;101062.75;131380;1254;107396;-72
2023/04/10 08:41:25;;;;;;;21.20;16.30;;;;;;;11.81;81.85;101060.95;131318;1253;107206;-72
2023/04/10 08:44:31;;;;;;;20.90;15.50;;;;;;;11.77;81.79;101056.07;131327;1248;107365;-72
2023/04/10 08:47:38;;;;;;;16.70;14.00;;;;;;;11.78;81.44;101053.52;131410;1254;106703;-72
2023/04/10 08:50:47;;;;;;;19.00;14.80;;;;;;;11.86;81.58;101053.52;131432;1253;106700;-72
2023/04/10 08:53:58;;;;;;;19.10;14.70;;;;;;;12.00;81.66;101051.70;131214;1253;107503;-72
2023/04/10 08:57:06;;;;;;;18.40;14.90;;;;;;;12.13;81.72;101053.50;131143;1255;106679;-72
2023/04/10 09:00:13;;;;;;;17.90;14.10;;;;;;;12.20;81.31;101053.02;131226;1254;107502;-72
2023/04/10 09:03:19;;;;;;;15.60;12.90;;;;;;;12.28;81.01;101051.61;131145;1254;107208;-72
2023/04/10 09:06:24;;;;;;;17.90;13.40;;;;;;;12.39;81.04;101049.59;131099;1253;107500;-72
2023/04/10 09:09:31;;;;;;;18.10;14.70;;;;;;;12.49;80.55;101050.29;131350;1253;107525;-72
2023/04/10 09:12:47;;;;;;;16.50;13.50;;;;;;;12.58;79.98;101050.48;131267;1261;107383;-72
2023/04/10 09:15:59;;;;;;;18.80;15.00;;;;;;;12.70;80.38;101039.90;131190;1251;107262;-72
2023/04/10 09:19:05;;;;;;;17.00;13.90;;;;;;;12.84;80.41;101038.23;131154;1253;107632;-73
2023/04/10 09:22:11;;;;;;;21.10;15.00;;;;;;;12.93;79.49;101037.36;131232;1254;106290;-74
2023/04/10 09:25:32;;;;;;;19.40;14.60;;;;;;;12.94;79.45;101036.81;131325;1254;107424;-72
2023/04/10 09:28:58;;;;;;;18.70;13.10;;;;;;;12.99;78.80;101027.52;131422;1261;108526;-72
2023/04/10 09:32:03;;;;;;;19.20;14.70;;;;;;;13.07;78.23;101027.25;131252;1263;107336;-72
2023/04/10 09:35:11;;;;;;;17.70;13.00;;;;;;;13.14;78.46;101020.44;131344;1254;107462;-72
2023/04/10 09:38:18;;;;;;;16.60;13.10;;;;;;;13.34;78.66;101016.77;131219;1261;107531;-71
2023/04/10 09:41:23;;;;;;;15.40;12.30;;;;;;;13.58;78.67;101009.83;131158;1254;107703;-71
2023/04/10 09:44:34;;;;;;;16.40;12.60;;;;;;;13.86;77.90;101007.64;131261;1253;107197;-71
2023/04/10 09:47:39;;;;;;;14.40;10.80;;;;;;;14.07;77.65;101002.55;131241;1255;107215;-72
2023/04/10 09:50:45;;;;;;;11.90;8.90;;;;;;;14.17;74.31;101000.20;131425;1254;107305;-71
2023/04/10 09:53:50;;;;;;;9.80;7.40;;;;;;;14.18;74.34;101000.81;131335;1253;107542;-71
2023/04/10 09:56:57;;;;;;;9.80;7.60;;;;;;;14.23;74.01;101000.41;131316;1253;107512;-71
2023/04/10 10:00:05;;;;;;;16.40;13.00;;;;;;;14.35;74.25;100996.52;131212;1256;106263;-71
2023/04/10 10:03:14;;;;;;;;;;;;;;;14.41;74.12;100988.20;131349;1248;107667;-71
2023/04/10 10:06:20;;;;;;;13.50;9.30;;;;;;;14.47;73.26;100983.23;131438;1254;108078;-71
2023/04/10 10:09:27;;;;;;;10.90;8.70;;;;;;;14.55;72.56;100980.96;131265;1248;107650;-71
2023/04/10 10:12:40;;;;;;;11.50;8.50;;;;;;;14.62;73.64;100975.98;131252;1263;107358;-71
2023/04/10 10:15:52;;;;;;;7.30;6.20;;;;;;;14.75;74.13;100973.16;131403;1253;106087;-71
2023/04/10 10:19:06;;;;;;;7.70;6.90;;;;;;;15.06;73.66;100967.87;131428;1251;109322;-73
2023/04/10 10:22:13;;;;;;;12.30;11.00;;;;;;;15.43;72.23;100967.20;131312;1254;107548;-72
2023/04/10 10:25:20;;;;;;;10.90;9.40;;;;;;;15.49;70.66;100965.39;131044;1253;107548;-73
2023/04/10 10:28:28;;;;;;;11.70;9.50;;;;;;;15.44;70.67;100963.40;131171;1255;107251;-72
2023/04/10 10:31:36;;;;;;;10.00;8.60;;;;;;;15.53;70.64;100966.77;131171;1254;107531;-72
2023/04/10 10:34:42;;;;;;;13.00;8.80;;;;;;;15.66;70.97;100964.12;131198;1263;107544;-73
2023/04/10 10:37:48;;;;;;;12.00;10.40;;;;;;;15.80;69.84;100960.77;131217;1254;106528;-72
2023/04/10 10:41:02;;;;;;;15.80;14.10;;;;;;;15.71;69.60;100958.19;131225;1254;106120;-71
2023/04/10 10:44:12;;;;;;;12.30;11.00;;;;;;;15.68;68.64;100957.25;131206;1254;107639;-72
2023/04/10 10:47:19;;;;;;;10.00;8.90;;;;;;;15.50;68.35;100952.70;131209;1254;107500;-71
2023/04/10 10:50:27;;;;;;;12.40;9.70;;;;;;;15.37;69.55;100953.69;131233;1261;107261;-71
2023/04/10 10:53:40;;;;;;;10.20;8.80;;;;;;;15.34;69.18;100952.07;131221;1254;108627;-73
2023/04/10 10:56:46;;;;;;;9.60;8.60;;;;;;;15.30;69.80;100944.73;131189;1254;107367;-71
2023/04/10 10:59:57;;;;;;;9.10;7.40;;;;;;;15.50;70.98;100941.80;131215;1253;107576;-71
2023/04/10 11:03:29;;;;;;;8.80;6.90;;;;;;;15.74;69.06;100942.59;131309;1253;108635;-71
2023/04/10 11:06:51;;;;;;;7.90;6.00;;;;;;;15.79;66.05;100938.33;131144;1254;107415;-71
2023/04/10 11:09:57;;;;;;;6.40;5.40;;;;;;;16.00;68.12;100929.64;131201;1257;106695;-72
2023/04/10 11:13:19;;;;;;;8.80;7.10;;;;;;;16.31;68.08;100919.05;131265;1254;107536;-74
2023/04/10 11:16:42;;;;;;;7.80;6.70;;;;;;;16.54;66.76;100914.77;131373;1253;107509;-73
2023/04/10 11:20:00;;;;;;;10.50;7.10;;;;;;;16.68;66.01;100912.23;131406;1261;107142;-73
2023/04/10 11:23:10;;;;;;;8.30;7.50;;;;;;;16.78;65.90;100909.15;131286;1261;107235;-72
2023/04/10 11:26:42;;;;;;;8.00;6.50;;;;;;;16.87;66.48;100904.38;131172;1251;108674;-72
2023/04/10 11:29:47;;;;;;;7.20;5.10;;;;;;;17.07;67.33;100899.73;131124;1260;107336;-73
2023/04/10 11:32:53;;;;;;;7.20;4.80;;;;;;;17.11;63.42;100899.96;131157;1261;107227;-72
2023/04/10 11:36:01;;;;;;;5.20;4.70;;;;;;;17.13;63.65;100891.28;131146;1254;107380;-73
2023/04/10 11:39:07;;;;;;;8.10;5.60;;;;;;;17.18;65.45;100887.55;131193;1254;107418;-72
2023/04/10 11:42:13;;;;;;;6.70;5.20;;;;;;;17.22;63.30;100888.20;131071;1254;107510;-72
2023/04/10 11:45:27;;;;;;;8.30;5.50;;;;;;;17.14;64.10;100886.45;131146;1254;107416;-73
2023/04/10 11:48:33;;;;;;;7.50;5.80;;;;;;;16.82;62.51;100887.98;131220;1253;107216;-72
2023/04/10 11:51:39;;;;;;;10.10;8.20;;;;;;;16.58;63.39;100885.45;131439;1248;107476;-71
2023/04/10 11:54:50;;;;;;;11.40;9.30;;;;;;;16.33;64.04;100880.73;131241;1254;107508;-71
2023/04/10 11:57:56;;;;;;;8.60;6.40;;;;;;;16.09;63.92;100881.46;131114;1253;107257;-71
2023/04/10 12:01:04;;;;;;;7.90;5.80;;;;;;;15.87;64.67;100882.64;131248;1254;107277;-71
2023/04/10 12:04:16;;;;;;;6.40;5.70;;;;;;;15.77;65.80;100875.00;131325;1254;107350;-72
2023/04/10 12:07:26;;;;;;;7.20;5.80;;;;;;;15.72;65.54;100873.59;131342;1254;107431;-72
2023/04/10 12:10:47;;;;;;;8.00;6.20;;;;;;;15.61;64.68;100866.19;131230;1253;107253;-71
2023/04/10 12:13:55;;;;;;;7.70;6.00;;;;;;;15.50;65.00;100864.50;131286;1263;107523;-72
2023/04/10 12:17:01;;;;;;;7.70;6.30;;;;;;;15.48;65.20;100862.83;131311;1254;107416;-71
2023/04/10 12:20:08;;;;;;;6.50;5.70;;;;;;;15.45;64.34;100857.38;131253;1253;107552;-73
2023/04/10 12:23:14;;;;;;;9.00;5.50;;;;;;;15.42;64.77;100853.58;131326;1254;106811;-71
2023/04/10 12:26:20;;;;;;;6.70;5.50;;;;;;;15.50;65.11;100848.36;131115;1261;107675;-71
2023/04/10 12:29:29;;;;;;;7.00;5.90;;;;;;;15.68;64.06;100839.29;131245;1248;107335;-72
2023/04/10 12:32:35;;;;;;;13.40;9.60;;;;;;;15.88;64.09;100831.03;131094;1252;240439;-71
2023/04/10 12:35:41;;;;;;;8.30;6.00;;;;;;;16.23;64.56;100821.16;131162;1253;107459;-71
2023/04/10 12:38:46;;;;;;;6.70;4.50;;;;;;;16.64;63.34;100818.59;131193;1253;106465;-72
2023/04/10 12:41:52;;;;;;;6.00;4.10;;;;;;;16.91;62.14;100811.22;131122;1263;107410;-73
2023/04/10 12:44:59;;;;;;;5.40;4.10;;;;;;;17.13;63.00;100804.78;131229;1254;108635;-74
2023/04/10 12:48:05;;;;;;;5.90;4.20;;;;;;;17.34;62.79;100805.61;131280;1256;106511;-73
2023/04/10 12:51:10;;;;;;;13.20;9.70;;;;;;;17.37;60.72;100807.49;131144;1251;107244;-73
2023/04/10 12:54:30;;;;;;;5.70;4.60;;;;;;;17.20;60.61;100807.59;131203;1254;107350;-74
2023/04/10 12:57:36;;;;;;;7.20;5.10;;;;;;;16.93;61.02;100808.93;131197;1251;107439;-71
2023/04/10 13:00:42;;;;;;;9.30;7.10;;;;;;;16.65;60.98;100805.71;131361;1263;106026;-73
2023/04/10 13:03:48;;;;;;;11.70;8.80;;;;;;;16.35;61.93;100804.55;131256;1253;107650;-71
2023/04/10 13:06:53;;;;;;;12.40;9.30;;;;;;;16.03;61.95;100801.58;131233;1254;107502;-71
2023/04/10 13:09:59;;;;;;;41.10;26.00;;;;;;;15.82;63.07;100798.00;131163;1254;108676;-72
2023/04/10 13:13:05;;;;;;;27.10;16.80;;;;;;;15.66;64.00;100795.47;131131;1254;107492;-71
2023/04/10 13:16:12;;;;;;;13.00;9.00;;;;;;;15.54;65.07;100793.77;131276;1248;107272;-73
2023/04/10 13:19:18;;;;;;;10.20;6.90;;;;;;;15.46;65.35;100787.75;131440;1253;107525;-71
2023/04/10 13:22:23;;;;;;;7.00;5.80;;;;;;;15.44;65.91;100783.16;131548;1262;107334;-74
2023/04/10 13:25:31;;;;;;;6.10;5.10;;;;;;;15.47;66.39;100776.87;131364;1263;107491;-74
2023/04/10 13:28:36;;;;;;;7.30;5.20;;;;;;;15.52;66.83;100773.39;131431;1251;109305;-74
2023/04/10 13:31:42;;;;;;;6.80;4.80;;;;;;;15.55;67.00;100773.48;131345;1257;106999;-72
2023/04/10 13:34:47;;;;;;;6.20;4.10;;;;;;;15.57;67.30;100769.98;131102;1253;107573;-71
2023/04/10 13:37:53;;;;;;;6.20;5.20;;;;;;;15.64;67.24;100766.52;131289;1261;106161;-71
2023/04/10 13:40:58;;;;;;;7.00;4.50;;;;;;;15.73;67.33;100762.97;131028;1254;108518;-71
2023/04/10 13:44:03;;;;;;;6.60;4.90;;;;;;;15.83;67.23;100758.46;131262;1264;107454;-72
2023/04/10 13:47:09;;;;;;;5.20;4.60;;;;;;;15.91;67.35;100756.52;131183;1253;108000;-72
2023/04/10 13:50:14;;;;;;;6.70;4.90;;;;;;;16.00;67.28;100751.11;131204;1254;106463;-72
2023/04/10 13:53:20;;;;;;;6.40;4.70;;;;;;;16.07;67.06;100746.54;131281;1254;107518;-71
2023/04/10 13:56:25;;;;;;;6.30;4.70;;;;;;;16.19;65.90;100744.88;131137;1254;106784;-72
2023/04/10 13:59:31;;;;;;;5.40;4.40;;;;;;;16.18;64.66;100742.48;131336;1253;107344;-71
2023/04/10 14:02:37;;;;;;;6.10;5.30;;;;;;;16.19;64.87;100741.08;131150;1254;107474;-72
2023/04/10 14:05:43;;;;;;;7.30;5.00;;;;;;;16.23;63.91;100737.32;131284;1248;107309;-71
2023/04/10 14:08:49;;;;;;;5.50;4.50;;;;;;;16.21;63.39;100732.92;131405;1253;105757;-71
2023/04/10 14:11:54;;;;;;;6.20;4.60;;;;;;;16.15;64.32;100728.75;131261;1248;107339;-71
2023/04/10 14:15:00;;;;;;;8.00;6.20;;;;;;;16.11;64.00;100723.79;131228;1254;107531;-71